createdAt,value
2022-09-10T00:01:27.346Z,25.60
2022-09-10T00:03:56.673Z,25.60
2022-09-10T00:06:28.907Z,25.60
2022-09-10T00:08:58.880Z,25.60
2022-09-10T00:11:30.401Z,25.50
2022-09-10T00:13:59.732Z,25.50
2022-09-10T00:16:28.853Z,25.60
2022-09-10T00:18:58.560Z,25.60
2022-09-10T00:21:27.040Z,25.60
2022-09-10T00:23:55.486Z,25.70
2022-09-10T00:26:28.843Z,25.70
2022-09-10T00:28:58.055Z,25.70
2022-09-10T00:31:27.472Z,25.70
2022-09-10T00:33:55.972Z,25.80
2022-09-10T00:36:25.815Z,25.80
2022-09-10T00:38:55.986Z,25.80
2022-09-10T00:41:27.983Z,25.80
2022-09-10T00:44:03.620Z,25.80
2022-09-10T00:46:35.176Z,25.90
2022-09-10T00:49:06.356Z,25.90
2022-09-10T00:51:36.399Z,26.00
2022-09-10T00:54:05.461Z,26.00
2022-09-10T00:56:36.268Z,26.00
2022-09-10T00:59:06.564Z,26.00
2022-09-10T01:01:36.036Z,26.10
2022-09-10T01:04:05.931Z,26.10
2022-09-10T01:06:35.100Z,26.10
2022-09-10T01:09:04.302Z,26.20
2022-09-10T01:11:35.944Z,26.20
2022-09-10T01:14:04.456Z,26.10
2022-09-10T01:16:42.051Z,26.20
2022-09-10T01:19:24.684Z,26.20
2022-09-10T01:21:56.283Z,26.20
2022-09-10T01:24:42.402Z,26.20
2022-09-10T01:27:29.485Z,26.20
2022-09-10T01:30:04.589Z,26.20
2022-09-10T01:32:36.793Z,26.30
2022-09-10T01:35:17.429Z,26.30
2022-09-10T01:37:48.805Z,26.30
2022-09-10T01:40:19.186Z,26.30
2022-09-10T01:42:47.848Z,26.30
2022-09-10T01:45:16.836Z,26.40
2022-09-10T01:47:52.383Z,26.40
2022-09-10T01:50:23.916Z,26.40
2022-09-10T01:53:01.514Z,26.40
2022-09-10T01:55:32.776Z,26.50
2022-09-10T01:58:14.748Z,26.50
2022-09-10T02:00:45.143Z,26.50
2022-09-10T02:03:17.363Z,26.50
2022-09-10T02:05:48.769Z,26.60
2022-09-10T02:08:21.375Z,26.50
2022-09-10T02:10:54.971Z,26.60
2022-09-10T02:13:24.655Z,26.60
2022-09-10T02:15:53.621Z,26.60
2022-09-10T02:18:22.667Z,26.60
2022-09-10T02:20:52.334Z,26.70
2022-09-10T02:23:23.017Z,26.70
2022-09-10T02:25:51.690Z,26.70
2022-09-10T02:28:20.197Z,26.70
2022-09-10T02:30:49.339Z,26.70
2022-09-10T02:33:17.875Z,26.80
2022-09-10T02:35:48.651Z,26.80
2022-09-10T02:38:18.094Z,26.80
2022-09-10T02:40:50.054Z,26.90
2022-09-10T02:43:18.864Z,26.90
2022-09-10T02:45:47.437Z,26.90
2022-09-10T02:48:15.950Z,26.90
2022-09-10T02:50:46.173Z,26.90
2022-09-10T02:53:15.064Z,27.00
2022-09-10T02:55:46.638Z,27.00
2022-09-10T02:58:16.125Z,27.00
2022-09-10T03:00:45.277Z,27.10
2022-09-10T03:03:13.971Z,27.10
2022-09-10T03:05:42.724Z,27.00
2022-09-10T03:08:11.582Z,27.10
2022-09-10T03:10:40.604Z,27.10
2022-09-10T03:13:09.257Z,27.20
2022-09-10T03:15:37.729Z,27.20
2022-09-10T03:18:06.866Z,27.30
2022-09-10T03:20:35.364Z,27.30
2022-09-10T03:23:04.696Z,27.40
2022-09-10T03:25:37.101Z,27.50
2022-09-10T03:28:06.086Z,27.50
2022-09-10T03:30:34.591Z,27.50
2022-09-10T03:33:03.544Z,27.60
2022-09-10T03:35:32.071Z,27.50
2022-09-10T03:38:00.544Z,27.50
2022-09-10T03:40:30.600Z,27.50
2022-09-10T03:42:59.032Z,27.50
2022-09-10T03:45:28.153Z,27.60
2022-09-10T03:47:56.668Z,27.60
2022-09-10T03:50:25.177Z,27.70
2022-09-10T03:52:53.677Z,27.80
2022-09-10T03:55:23.325Z,27.80
2022-09-10T03:57:51.805Z,27.80
2022-09-10T04:00:22.017Z,27.90
2022-09-10T04:02:50.516Z,28.00
2022-09-10T04:05:20.189Z,28.00
2022-09-10T04:07:48.664Z,28.00
2022-09-10T04:10:17.579Z,28.00
2022-09-10T04:12:46.847Z,28.00
2022-09-10T04:15:15.431Z,28.00
2022-09-10T04:17:43.952Z,27.90
2022-09-10T04:20:13.152Z,28.00
2022-09-10T04:22:41.668Z,28.00
2022-09-10T04:25:10.577Z,28.00
2022-09-10T04:27:39.035Z,28.10
2022-09-10T04:30:07.927Z,28.10
2022-09-10T04:32:36.584Z,28.10
2022-09-10T04:35:05.521Z,28.10
2022-09-10T04:37:35.909Z,28.20
2022-09-10T04:40:05.511Z,28.30
2022-09-10T04:42:34.195Z,28.30
2022-09-10T04:45:02.713Z,28.40
2022-09-10T04:47:31.271Z,28.50
2022-09-10T04:49:59.756Z,28.50
2022-09-10T04:52:30.022Z,28.50
2022-09-10T04:54:58.530Z,28.40
2022-09-10T04:57:27.130Z,28.40
2022-09-10T04:59:55.616Z,28.40
2022-09-10T05:02:24.153Z,28.40
2022-09-10T05:04:52.607Z,28.40
2022-09-10T05:07:21.071Z,28.50
2022-09-10T05:09:49.752Z,28.60
2022-09-10T05:12:20.614Z,28.70
2022-09-10T05:14:50.299Z,28.80
2022-09-10T05:17:18.784Z,28.90
2022-09-10T05:19:47.259Z,29.00
2022-09-10T05:22:16.263Z,29.00
2022-09-10T05:24:45.259Z,29.10
2022-09-10T05:27:13.835Z,29.20
2022-09-10T05:29:42.391Z,29.20
2022-09-10T05:32:10.883Z,29.20
2022-09-10T05:34:40.880Z,29.20
2022-09-10T05:37:13.126Z,29.20
2022-09-10T05:39:41.617Z,29.10
2022-09-10T05:42:10.480Z,29.10
2022-09-10T05:44:39.051Z,29.20
2022-09-10T05:47:07.754Z,29.10
2022-09-10T05:49:36.395Z,29.10
2022-09-10T05:52:05.233Z,29.10
2022-09-10T05:54:33.792Z,29.10
2022-09-10T05:57:02.242Z,29.10
2022-09-10T05:59:31.108Z,29.00
2022-09-10T06:01:59.687Z,29.00
2022-09-10T06:04:28.354Z,29.00
2022-09-10T06:06:57.382Z,29.00
2022-09-10T06:09:26.089Z,29.00
2022-09-10T06:11:54.569Z,29.00
2022-09-10T06:14:23.389Z,29.10
2022-09-10T06:16:53.363Z,29.10
2022-09-10T06:19:22.539Z,29.20
2022-09-10T06:21:53.605Z,29.20
2022-09-10T06:24:22.276Z,29.20
2022-09-10T06:26:51.201Z,29.20
2022-09-10T06:29:20.400Z,29.20
2022-09-10T06:31:50.474Z,29.20
2022-09-10T06:34:20.057Z,29.10
2022-09-10T06:36:49.160Z,29.10
2022-09-10T06:39:18.269Z,29.10
2022-09-10T06:41:49.563Z,29.00
2022-09-10T06:44:19.544Z,29.00
2022-09-10T06:49:37.526Z,29.00
2022-09-10T06:52:06.108Z,29.00
2022-09-10T06:54:34.617Z,29.10
2022-09-10T06:57:05.572Z,29.10
2022-09-10T06:59:34.120Z,29.10
2022-09-10T07:02:03.431Z,29.10
2022-09-10T07:04:31.952Z,29.10
2022-09-10T07:07:00.818Z,29.10
2022-09-10T07:09:29.307Z,29.10
2022-09-10T07:11:58.584Z,29.00
2022-09-10T07:14:28.217Z,29.00
2022-09-10T07:16:57.804Z,29.00
2022-09-10T07:19:26.295Z,29.00
2022-09-10T07:21:54.967Z,28.90
2022-09-10T07:24:23.452Z,28.90
2022-09-10T07:26:52.612Z,28.80
2022-09-10T07:29:21.318Z,28.80
2022-09-10T07:31:49.855Z,28.70
2022-09-10T07:34:18.331Z,28.70
2022-09-10T07:36:46.872Z,28.60
2022-09-10T07:39:15.623Z,28.60
2022-09-10T07:41:44.098Z,28.60
2022-09-10T07:44:12.918Z,28.50
2022-09-10T07:46:43.423Z,28.50
2022-09-10T07:49:12.055Z,28.40
2022-09-10T07:51:40.562Z,28.40
2022-09-10T07:54:09.048Z,28.40
2022-09-10T07:56:37.607Z,28.30
2022-09-10T07:59:06.071Z,28.30
2022-09-10T08:01:35.668Z,28.30
2022-09-10T08:04:05.331Z,28.30
2022-09-10T08:06:35.025Z,28.20
2022-09-10T08:09:08.435Z,28.20
2022-09-10T08:11:37.003Z,28.10
2022-09-10T08:14:05.896Z,28.10
2022-09-10T08:16:34.519Z,28.10
2022-09-10T08:19:03.787Z,28.00
2022-09-10T08:21:32.359Z,28.00
2022-09-10T08:24:01.001Z,27.90
2022-09-10T08:26:30.068Z,27.90
2022-09-10T08:28:59.241Z,27.90
2022-09-10T08:31:27.756Z,27.80
2022-09-10T08:33:56.876Z,27.60
2022-09-10T08:36:26.747Z,27.40
2022-09-10T08:39:00.656Z,27.20
2022-09-10T08:41:36.859Z,27.00
2022-09-10T08:44:14.521Z,26.80
2022-09-10T08:46:56.728Z,26.70
2022-09-10T08:49:37.205Z,26.50
2022-09-10T08:52:23.984Z,26.40
2022-09-10T08:54:57.299Z,26.30
2022-09-10T08:57:32.998Z,26.20
2022-09-10T09:00:02.264Z,26.10
2022-09-10T09:02:48.330Z,26.10
2022-09-10T09:05:20.755Z,26.00
2022-09-10T09:07:49.864Z,25.90
2022-09-10T09:10:24.425Z,25.90
2022-09-10T09:12:58.743Z,25.80
2022-09-10T09:15:27.404Z,25.80
2022-09-10T09:18:12.140Z,25.80
2022-09-10T09:20:50.237Z,25.80
2022-09-10T09:23:23.361Z,25.80
2022-09-10T09:25:55.152Z,25.80
2022-09-10T09:28:37.747Z,25.80
2022-09-10T09:31:23.776Z,25.80
2022-09-10T09:33:54.181Z,25.80
2022-09-10T09:36:26.816Z,25.80
2022-09-10T09:38:56.608Z,25.80
2022-09-10T09:41:27.342Z,25.80
2022-09-10T09:43:55.921Z,25.80
2022-09-10T09:46:26.748Z,25.80
2022-09-10T09:49:00.213Z,25.80
2022-09-10T09:51:31.709Z,25.80
2022-09-10T09:54:34.639Z,25.80
2022-09-10T09:56:55.788Z,25.80
2022-09-10T09:59:31.355Z,25.80
2022-09-10T10:02:03.076Z,25.80
2022-09-10T10:04:32.328Z,25.80
2022-09-10T10:07:01.971Z,25.80
2022-09-10T10:09:32.752Z,25.80
2022-09-10T10:12:05.556Z,25.90
2022-09-10T10:14:36.188Z,25.90
2022-09-10T10:17:22.039Z,25.90
2022-09-10T10:20:06.351Z,25.90
2022-09-10T10:22:35.041Z,26.00
2022-09-10T10:25:05.485Z,26.00
2022-09-10T10:27:45.075Z,25.90
2022-09-10T10:30:13.583Z,25.90
2022-09-10T10:32:49.160Z,26.00
2022-09-10T10:35:24.497Z,26.00
2022-09-10T10:38:02.168Z,26.00
2022-09-10T10:40:31.730Z,26.00
2022-09-10T10:43:03.247Z,26.00
2022-09-10T10:45:38.496Z,26.00
2022-09-10T10:48:17.483Z,26.00
2022-09-10T10:50:53.046Z,26.00
2022-09-10T10:53:30.336Z,26.00
2022-09-10T10:56:13.992Z,25.90
2022-09-10T10:58:54.268Z,25.90
2022-09-10T11:01:24.768Z,25.90
2022-09-10T11:03:53.984Z,25.80
2022-09-10T11:06:25.686Z,25.80
2022-09-10T11:09:09.788Z,25.80
2022-09-10T11:11:41.259Z,25.80
2022-09-10T11:14:09.802Z,25.80
2022-09-10T11:16:44.938Z,25.80
2022-09-10T11:19:24.096Z,25.80
2022-09-10T11:22:00.002Z,25.80
2022-09-10T11:24:35.869Z,25.80
2022-09-10T11:27:25.290Z,25.80
2022-09-10T11:30:00.528Z,25.80
2022-09-10T11:32:41.398Z,25.80
2022-09-10T11:35:19.400Z,25.80
2022-09-10T11:37:52.164Z,25.80
2022-09-10T11:40:31.328Z,25.80
2022-09-10T11:43:03.929Z,25.80
2022-09-10T11:45:37.363Z,25.80
2022-09-10T11:48:08.837Z,25.80
2022-09-10T11:50:47.630Z,25.80
2022-09-10T11:53:17.626Z,25.80
2022-09-10T11:55:50.369Z,25.80
2022-09-10T11:58:36.036Z,25.80
2022-09-10T12:01:13.059Z,25.80
2022-09-10T12:03:50.486Z,25.80
2022-09-10T12:06:30.018Z,25.70
2022-09-10T12:09:05.174Z,25.70
2022-09-10T12:11:33.684Z,25.70
2022-09-10T12:14:07.528Z,25.60
2022-09-10T12:16:42.324Z,25.70
2022-09-10T12:19:20.975Z,25.70
2022-09-10T12:21:51.960Z,25.70
2022-09-10T12:24:33.237Z,25.70
2022-09-10T12:27:02.725Z,25.70
2022-09-10T12:29:38.568Z,25.70
2022-09-10T12:32:10.923Z,25.70
2022-09-10T12:34:41.216Z,25.80
2022-09-10T12:37:20.354Z,25.80
2022-09-10T12:39:50.160Z,25.80
2022-09-10T12:42:29.840Z,25.80
2022-09-10T12:44:58.380Z,25.80
2022-09-10T12:47:27.220Z,25.80
2022-09-10T12:50:02.115Z,25.80
2022-09-10T12:52:36.644Z,25.80
2022-09-10T12:55:23.644Z,25.80
2022-09-10T12:58:02.019Z,25.80
2022-09-10T13:00:48.811Z,25.80
2022-09-10T13:03:18.934Z,25.80
2022-09-10T13:05:50.201Z,25.80
2022-09-10T13:08:21.593Z,25.70
2022-09-10T13:11:08.180Z,25.80
2022-09-10T13:13:39.057Z,25.80
2022-09-10T13:16:10.915Z,25.80
2022-09-10T13:18:39.464Z,25.80
2022-09-10T13:21:26.450Z,25.80
2022-09-10T13:23:55.405Z,25.80
2022-09-10T13:26:33.604Z,25.80
2022-09-10T13:29:05.904Z,25.80
2022-09-10T13:31:45.412Z,25.80
2022-09-10T13:34:16.961Z,25.80
2022-09-10T13:36:54.908Z,25.80
2022-09-10T13:39:24.876Z,25.80
2022-09-10T13:42:00.036Z,25.80
2022-09-10T13:44:34.866Z,25.80
2022-09-10T13:47:12.789Z,25.90
2022-09-10T13:49:52.644Z,25.80
2022-09-10T13:52:27.035Z,25.80
2022-09-10T13:54:57.591Z,25.80
2022-09-10T13:57:31.046Z,25.80
2022-09-10T14:00:06.832Z,25.80
2022-09-10T14:02:45.650Z,25.80
2022-09-10T14:05:34.988Z,25.80
2022-09-10T14:08:07.707Z,25.80
2022-09-10T14:10:37.869Z,25.80
2022-09-10T14:13:06.876Z,25.80
2022-09-10T14:15:40.105Z,25.80
2022-09-10T14:18:10.559Z,25.80
2022-09-10T14:20:40.618Z,25.80
2022-09-10T14:23:14.270Z,25.80
2022-09-10T14:25:44.256Z,25.80
2022-09-10T14:28:20.753Z,25.80
2022-09-10T14:30:50.234Z,25.80
2022-09-10T14:33:28.813Z,25.80
2022-09-10T14:35:59.255Z,25.80
2022-09-10T14:38:34.911Z,25.90
2022-09-10T14:41:08.468Z,25.80
2022-09-10T14:43:41.378Z,25.90
2022-09-10T14:46:11.148Z,25.80
2022-09-10T14:48:58.192Z,25.80
2022-09-10T14:51:27.164Z,25.80
2022-09-10T14:53:56.738Z,25.70
2022-09-10T14:56:31.419Z,25.70
2022-09-10T14:59:21.020Z,25.70
2022-09-10T15:01:49.736Z,25.70
2022-09-10T15:04:31.175Z,25.70
2022-09-10T15:07:00.452Z,25.70
2022-09-10T15:09:29.457Z,25.70
2022-09-10T15:11:57.982Z,25.70
2022-09-10T15:14:26.843Z,25.70
2022-09-10T15:16:55.339Z,25.60
2022-09-10T15:19:24.248Z,25.70
2022-09-10T15:21:52.769Z,25.70
2022-09-10T15:24:22.778Z,25.70
2022-09-10T15:26:51.583Z,25.70
2022-09-10T15:29:20.295Z,25.70
2022-09-10T15:31:48.796Z,25.70
2022-09-10T15:34:17.553Z,25.70
2022-09-10T15:36:46.107Z,25.70
2022-09-10T15:39:14.814Z,25.70
2022-09-10T15:41:45.795Z,25.70
2022-09-10T15:44:17.331Z,25.70
2022-09-10T15:46:46.417Z,25.70
2022-09-10T15:49:14.912Z,25.70
2022-09-10T15:51:43.497Z,25.70
2022-09-10T15:54:12.548Z,25.70
2022-09-10T15:56:41.077Z,25.80
2022-09-10T15:59:12.822Z,25.70
2022-09-10T16:01:41.334Z,25.80
2022-09-10T16:04:10.937Z,25.80
2022-09-10T16:06:40.623Z,25.80
2022-09-10T16:09:10.746Z,25.70
2022-09-10T16:11:40.174Z,25.80
2022-09-10T16:14:10.011Z,25.80
2022-09-10T16:16:38.648Z,25.80
2022-09-10T16:19:07.159Z,25.80
2022-09-10T16:21:37.716Z,25.80
2022-09-10T16:24:07.052Z,25.80
2022-09-10T16:26:37.397Z,25.70
2022-09-10T16:29:07.599Z,25.70
2022-09-10T16:31:38.955Z,25.70
2022-09-10T16:34:08.168Z,25.80
2022-09-10T16:36:38.148Z,25.70
2022-09-10T16:39:12.887Z,25.70
2022-09-10T16:41:42.020Z,25.70
2022-09-10T16:44:12.403Z,25.80
2022-09-10T16:46:41.135Z,25.80
2022-09-10T16:49:13.898Z,25.70
2022-09-10T16:51:43.551Z,25.70
2022-09-10T16:54:12.293Z,25.80
2022-09-10T16:56:44.828Z,25.70
2022-09-10T16:59:18.673Z,25.80
2022-09-10T17:01:49.494Z,25.70
2022-09-10T17:04:24.607Z,25.70
2022-09-10T17:06:56.455Z,25.70
2022-09-10T17:09:25.901Z,25.70
2022-09-10T17:11:54.432Z,25.70
2022-09-10T17:14:22.937Z,25.70
2022-09-10T17:16:51.535Z,25.70
2022-09-10T17:19:21.413Z,25.70
2022-09-10T17:21:52.352Z,25.70
2022-09-10T17:24:22.100Z,25.70
2022-09-10T17:26:50.649Z,25.70
2022-09-10T17:29:21.787Z,25.70
2022-09-10T17:31:51.335Z,25.60
2022-09-10T17:34:22.477Z,25.60
2022-09-10T17:36:50.932Z,25.60
2022-09-10T17:39:19.560Z,25.60
2022-09-10T17:41:48.171Z,25.60
2022-09-10T17:44:19.758Z,25.70
2022-09-10T17:46:48.397Z,25.60
2022-09-10T17:49:17.132Z,25.60
2022-09-10T17:51:45.735Z,25.60
2022-09-10T17:54:14.762Z,25.60
2022-09-10T17:56:44.453Z,25.60
2022-09-10T17:59:16.782Z,25.60
2022-09-10T18:01:45.368Z,25.60
2022-09-10T18:04:16.866Z,25.60
2022-09-10T18:06:48.973Z,25.60
2022-09-10T18:09:20.169Z,25.60
2022-09-10T18:11:48.858Z,25.50
2022-09-10T18:14:19.513Z,25.50
2022-09-10T18:16:48.071Z,25.50
2022-09-10T18:19:17.390Z,25.50
2022-09-10T18:21:46.816Z,25.60
2022-09-10T18:24:20.137Z,25.50
2022-09-10T18:26:49.287Z,25.50
2022-09-10T18:29:18.773Z,25.50
2022-09-10T18:31:52.501Z,25.50
2022-09-10T18:34:23.771Z,25.50
2022-09-10T18:36:55.535Z,25.50
2022-09-10T18:39:24.833Z,25.50
2022-09-10T18:41:53.767Z,25.50
2022-09-10T18:44:24.750Z,25.50
2022-09-10T18:46:54.096Z,25.50
2022-09-10T18:49:23.303Z,25.50
2022-09-10T18:51:53.395Z,25.50
2022-09-10T18:54:22.647Z,25.50
2022-09-10T18:56:51.691Z,25.60
2022-09-10T18:59:21.349Z,25.60
2022-09-10T19:01:50.701Z,25.60
2022-09-10T19:04:21.423Z,25.60
2022-09-10T19:06:50.417Z,25.60
2022-09-10T19:09:20.720Z,25.50
2022-09-10T19:11:49.982Z,25.60
2022-09-10T19:14:23.199Z,25.60
2022-09-10T19:16:52.666Z,25.60
2022-09-10T19:19:23.311Z,25.60
2022-09-10T19:21:56.951Z,25.60
2022-09-10T19:24:37.725Z,25.60
2022-09-10T19:27:12.987Z,25.60
2022-09-10T19:29:44.184Z,25.60
2022-09-10T19:32:13.094Z,25.60
2022-09-10T19:34:41.707Z,25.60
2022-09-10T19:37:10.919Z,25.60
2022-09-10T19:39:39.469Z,25.50
2022-09-10T19:42:08.095Z,25.50
2022-09-10T19:44:36.604Z,25.60
2022-09-10T19:47:05.190Z,25.60
2022-09-10T19:49:35.322Z,25.60
2022-09-10T19:52:05.354Z,25.50
2022-09-10T19:54:33.881Z,25.60
2022-09-10T19:57:02.578Z,25.50
2022-09-10T19:59:31.076Z,25.50
2022-09-10T20:01:59.691Z,25.50
2022-09-10T20:04:28.876Z,25.50
2022-09-10T20:06:57.354Z,25.50
2022-09-10T20:09:25.996Z,25.50
2022-09-10T20:11:54.833Z,25.50
2022-09-10T20:14:23.366Z,25.50
2022-09-10T20:16:52.427Z,25.50
2022-09-10T20:19:23.055Z,25.50
2022-09-10T20:21:51.543Z,25.50
2022-09-10T20:24:20.013Z,25.50
2022-09-10T20:26:50.087Z,25.50
2022-09-10T20:29:19.333Z,25.50
2022-09-10T20:31:48.134Z,25.50
2022-09-10T20:34:20.755Z,25.50
2022-09-10T20:36:51.478Z,25.50
2022-09-10T20:39:22.840Z,25.50
2022-09-10T20:41:52.404Z,25.50
2022-09-10T20:44:21.931Z,25.50
2022-09-10T20:46:50.757Z,25.50
2022-09-10T20:49:22.501Z,25.50
2022-09-10T20:51:51.026Z,25.50
2022-09-10T20:54:20.083Z,25.40
2022-09-10T20:56:48.891Z,25.40
2022-09-10T20:59:18.399Z,25.40
2022-09-10T21:01:48.100Z,25.40
2022-09-10T21:04:16.699Z,25.40
2022-09-10T21:06:45.353Z,25.30
2022-09-10T21:09:14.178Z,25.30
2022-09-10T21:11:42.740Z,25.30
2022-09-10T21:14:12.886Z,25.30
2022-09-10T21:16:44.317Z,25.30
2022-09-10T21:19:14.211Z,25.30
2022-09-10T21:21:43.358Z,25.30
2022-09-10T21:24:13.096Z,25.30
2022-09-10T21:26:43.038Z,25.30
2022-09-10T21:29:15.451Z,25.30
2022-09-10T21:31:44.502Z,25.30
2022-09-10T21:34:15.073Z,25.20
2022-09-10T21:36:44.821Z,25.20
2022-09-10T21:39:16.210Z,25.20
2022-09-10T21:41:49.200Z,25.20
2022-09-10T21:44:18.948Z,25.20
2022-09-10T21:46:47.818Z,25.20
2022-09-10T21:49:16.715Z,25.20
2022-09-10T21:51:45.590Z,25.20
2022-09-10T21:54:21.735Z,25.20
2022-09-10T21:56:51.258Z,25.20
2022-09-10T21:59:20.421Z,25.20
2022-09-10T22:01:50.886Z,25.20
2022-09-10T22:04:22.798Z,25.20
2022-09-10T22:06:52.251Z,25.20
2022-09-10T22:09:21.740Z,25.20
2022-09-10T22:11:52.427Z,25.20
2022-09-10T22:14:22.593Z,25.20
2022-09-10T22:16:51.462Z,25.20
2022-09-10T22:19:21.315Z,25.20
2022-09-10T22:21:49.902Z,25.20
2022-09-10T22:24:21.311Z,25.20
2022-09-10T22:26:49.870Z,25.20
2022-09-10T22:29:19.562Z,25.20
2022-09-10T22:31:48.672Z,25.20
2022-09-10T22:34:18.274Z,25.20
2022-09-10T22:36:47.394Z,25.20
2022-09-10T22:39:17.230Z,25.20
2022-09-10T22:41:46.172Z,25.20
2022-09-10T22:44:14.937Z,25.20
2022-09-10T22:46:44.108Z,25.20
2022-09-10T22:49:12.675Z,25.20
2022-09-10T22:51:44.494Z,25.20
2022-09-10T22:54:13.045Z,25.10
2022-09-10T22:56:41.703Z,25.10
2022-09-10T22:59:12.874Z,25.10
2022-09-10T23:01:41.627Z,25.00
2022-09-10T23:04:10.990Z,25.00
2022-09-10T23:06:40.000Z,24.90
2022-09-10T23:09:09.883Z,24.90
2022-09-10T23:11:38.751Z,24.90
2022-09-10T23:14:08.640Z,24.90
2022-09-10T23:16:38.516Z,24.90
2022-09-10T23:19:08.506Z,24.90
2022-09-10T23:21:37.034Z,24.90
2022-09-10T23:24:09.158Z,24.90
2022-09-10T23:26:37.651Z,24.80
2022-09-10T23:29:06.672Z,24.80
2022-09-10T23:31:37.126Z,24.70
2022-09-10T23:34:07.031Z,24.70
2022-09-10T23:36:36.754Z,24.70
2022-09-10T23:39:08.110Z,24.60
2022-09-10T23:41:36.654Z,24.60
2022-09-10T23:44:05.208Z,24.60
2022-09-10T23:46:33.822Z,24.60
2022-09-10T23:49:03.367Z,24.60
2022-09-10T23:51:33.137Z,24.60
2022-09-10T23:54:01.746Z,24.60
2022-09-10T23:56:30.362Z,24.60
2022-09-10T23:59:00.668Z,24.60
